Hlavní strana
METAR-TAF:

METAR-TAF

Letiště :

Tunis, Tunisko

zeměpisná šířka: 36-50N, zeměpisná délka: 010-14E, výška: 3 m

Aktuální stav počasí

Zpráva byla vytvořena před 16 minutami, v 22:00 UTC
Východojihovýchodní vítr 6 kt, proměnlivý mezi východním a jihojihovýchodním
Teplota 20°C
Vlhkost vzduchu 73%
Tlak 1015 hPa
Viditelnost 10 km a více
Skoro jasno ve výšce 3300 ft

METAR: DTTA 252200Z 12006KT 090V160 9999 FEW033 20/15 Q1015 NOSIG

Čas: 23:16 (22:16 UTC)

Předpověď počasí

Zpráva byla vytvořena před 5 hodinami a 16 minutami, v 17:00 UTC
Předpověď platná od 25 v 18 UTC do 26 v 18 UTC
Východojihovýchodní vítr 10 kt
Viditelnost 10 km a více
Skoro jasno ve výšce 2600 ft
Pravděpodobnost 30% :
Dočasný
od 25 v 22 UTC do 26 v 12 UTC
Polojasno ve výšce 2600 ft, Vertikální cumulus.
slabý déšť

TAF: DTTA 251700Z 2518/2618 12010KT 9999 FEW026 PROB30 TEMPO 2522/2612 -RA SCT026TCU

Stav a předpovědi počasí z více než 4 000 letišť (zprávy METAR a TAF).

Červené a žluté tečky na mapě představují dostupné meteorologické stanice.

Když kurzor umístíte na tečku, zobrazí se název stanice.

Pak kliknutím zobrazíte stav a předpověď počasí.

Chcete-li změnit mapu, kliknutím na zelené tlačítko se znaménkem +mapu přiblížíte, kliknutím na zelené tlačítko se znaménkem – mapu oddálíte a kliknutím na zelené šipky přejdete na sousední mapy.


METAR-TAF: